Weather at Sibu Hospital Heliport

Public forecast

Using degrees Celsius for public forecast. Weather courtesy of forecast.io.

Closest aviation weather report (METAR) to Sibu Hospital Heliport

Closest report is Sibu Airport, 6.1 nm (11.4 km) ESE.

2023/09/29 06:00 (retrieved 56 minutes ago)

WBGS 290600Z VRB03KT 9999 SCT018 31/25 Q1010

Closest aviation forecast (TAF) to Sibu Hospital Heliport

Closest forecast is Sibu Airport, 6.1 nm (11.4 km) ESE.

2023/09/29 06:00 (retrieved 56 minutes ago)

TAF WBGS 290500Z 2906/3006 VRB03KT 9999 SCT016